Terminal Aerodrome Forecast
Issued by NWS Dodge City, KS

Home | Current Version | Previous Version | Graphics & Text | Print | Product List | Glossary Off
Versions: 1 2 3 4 5 6 7 8 9 10 11 12 13 14 15 16 17 18 19 20 21 22 23 24 25

000
FTUS43 KDDC 241724
TAFDDC
TAF
KDDC 241724Z 2418/2518 14014KT P6SM SCT250
     FM242000 05012G22KT P6SM BKN250
     FM242100 02016G24KT P6SM VCSH BKN080
     FM250100 34022G30KT P6SM BKN050
     FM250500 34022G30KT P6SM BKN015
     FM251200 34017KT P6SM SCT050=

USA.gov is the U.S. government's official web portal to all federal, state and local government web resources and services.